Time;durP1;ratioP1;P1;durP2;ratioP2;P2;SDS_P1;SDS_P2;PMS_P1;PMS_P2;Temp;Humidity;BMP_temperature;BMP_pressure;BME280_temperature;BME280_humidity;BME280_pressure;Samples;Min_cycle;Max_cycle;Signal;HPM_P1;HPM_P2
2021/07/18 00:00:41;;;;;;;31.12;15.08;;;;;;;22.89;100.00;100256.77;1827670;78;21519;-76
2021/07/18 00:03:07;;;;;;;43.58;16.93;;;;;;;22.85;100.00;100251.76;1827461;78;20837;-76
2021/07/18 00:05:33;;;;;;;35.83;15.43;;;;;;;22.84;100.00;100253.47;1827589;78;21601;-76
2021/07/18 00:08:05;;;;;;;29.90;16.12;;;;;;;22.80;100.00;100251.21;1827371;78;21480;-78
2021/07/18 00:10:32;;;;;;;33.67;16.12;;;;;;;22.78;100.00;100257.63;1827648;78;20992;-76
2021/07/18 00:12:58;;;;;;;30.95;15.48;;;;;;;22.77;100.00;100248.59;1827386;78;22040;-76
2021/07/18 00:15:24;;;;;;;33.15;15.55;;;;;;;22.79;100.00;100252.34;1797743;78;21004;-75
2021/07/18 00:17:50;;;;;;;27.60;13.83;;;;;;;22.75;100.00;100245.38;1827498;78;20960;-74
2021/07/18 00:20:16;;;;;;;31.15;14.43;;;;;;;22.71;100.00;100249.16;1827612;78;20897;-80
2021/07/18 00:22:43;;;;;;;32.75;14.38;;;;;;;22.68;100.00;100239.12;1827345;78;21003;-76
2021/07/18 00:25:11;;;;;;;31.25;13.95;;;;;;;22.68;100.00;100245.98;1827493;78;21068;-75
2021/07/18 00:27:38;;;;;;;27.48;13.93;;;;;;;22.67;100.00;100236.71;1827449;78;20984;-76
2021/07/18 00:30:07;;;;;;;29.82;14.98;;;;;;;22.64;100.00;100240.95;1827649;78;21039;-76
2021/07/18 00:32:33;;;;;;;27.77;14.55;;;;;;;22.63;100.00;100243.48;1827419;78;21540;-76
2021/07/18 00:34:59;;;;;;;27.42;14.38;;;;;;;22.59;100.00;100249.47;1827371;78;21011;-75
2021/07/18 00:37:25;;;;;;;33.23;15.05;;;;;;;22.55;100.00;100251.88;1827188;78;22436;-76
2021/07/18 00:39:51;;;;;;;32.65;15.40;;;;;;;22.55;100.00;100249.92;1827521;78;20920;-76
2021/07/18 00:42:18;;;;;;;30.82;14.28;;;;;;;22.48;100.00;100253.05;1825217;78;20941;-79
2021/07/18 00:44:45;;;;;;;30.80;15.18;;;;;;;22.44;100.00;100255.67;1824299;78;20937;-79
2021/07/18 00:47:13;;;;;;;41.48;16.45;;;;;;;22.42;100.00;100253.87;1824289;78;21067;-76
2021/07/18 00:49:39;;;;;;;30.02;14.83;;;;;;;22.40;100.00;100254.78;1824271;78;21168;-75
2021/07/18 00:52:06;;;;;;;27.80;14.45;;;;;;;22.38;100.00;100251.58;1824249;78;22108;-75
2021/07/18 00:54:33;;;;;;;30.02;14.63;;;;;;;22.34;100.00;100253.43;1824191;78;20952;-76
2021/07/18 00:57:01;;;;;;;29.63;14.93;;;;;;;22.30;100.00;100254.70;1818980;78;21012;-74
2021/07/18 00:59:28;;;;;;;29.80;14.58;;;;;;;22.32;100.00;100255.14;1824534;78;20992;-75
2021/07/18 01:01:55;;;;;;;34.48;14.58;;;;;;;22.31;100.00;100252.75;1824480;78;21062;-76
2021/07/18 01:04:24;;;;;;;32.50;13.95;;;;;;;22.32;100.00;100252.97;1824308;78;21486;-74
2021/07/18 01:06:50;;;;;;;29.85;13.93;;;;;;;22.30;100.00;100251.16;1824057;78;21024;-74
2021/07/18 01:09:16;;;;;;;32.20;14.93;;;;;;;22.28;100.00;100250.13;1824892;78;21519;-75
2021/07/18 01:11:42;;;;;;;33.35;14.55;;;;;;;22.30;100.00;100242.35;1819367;78;20877;-74
2021/07/18 01:14:08;;;;;;;28.67;14.13;;;;;;;22.30;100.00;100248.42;1824459;78;21134;-81
2021/07/18 01:16:34;;;;;;;30.85;14.03;;;;;;;22.28;100.00;100243.27;1824370;78;23336;-76
2021/07/18 01:19:00;;;;;;;29.48;14.90;;;;;;;22.24;100.00;100241.00;1824391;78;20873;-75
2021/07/18 01:21:26;;;;;;;26.23;14.65;;;;;;;22.21;100.00;100236.20;1824572;78;20935;-76
2021/07/18 01:23:54;;;;;;;25.43;13.03;;;;;;;22.14;100.00;100235.36;1824500;78;21463;-76
2021/07/18 01:26:21;;;;;;;30.90;14.55;;;;;;;22.13;100.00;100240.64;1719218;83;21190;-75
2021/07/18 01:28:47;;;;;;;30.43;15.00;;;;;;;22.12;100.00;100237.68;1719074;83;20998;-76
2021/07/18 01:31:14;;;;;;;40.35;15.90;;;;;;;22.09;100.00;100245.23;1719253;83;21081;-74
2021/07/18 01:33:40;;;;;;;26.68;14.65;;;;;;;22.06;100.00;100240.98;1719120;83;21593;-76
2021/07/18 01:36:06;;;;;;;31.65;15.70;;;;;;;22.06;100.00;100244.55;1719460;83;20892;-76
2021/07/18 01:38:32;;;;;;;33.75;16.50;;;;;;;22.08;100.00;100238.70;1719327;83;21123;-76
2021/07/18 01:40:58;;;;;;;34.88;15.35;;;;;;;22.10;100.00;100241.33;1695124;83;21015;-77
2021/07/18 01:43:24;;;;;;;30.32;15.05;;;;;;;22.05;100.00;100238.82;1719027;83;21077;-76
2021/07/18 01:45:51;;;;;;;28.42;14.93;;;;;;;22.00;100.00;100245.36;1719302;83;21083;-73
2021/07/18 01:48:17;;;;;;;36.20;15.20;;;;;;;22.00;100.00;100250.02;1719178;83;21109;-76
2021/07/18 01:50:43;;;;;;;33.05;14.75;;;;;;;22.05;100.00;100250.37;1719391;83;20991;-76
2021/07/18 01:53:09;;;;;;;27.60;15.90;;;;;;;22.00;100.00;100243.16;1719458;83;20988;-74
2021/07/18 01:55:35;;;;;;;31.37;14.47;;;;;;;21.96;100.00;100247.17;1719272;83;21055;-76
2021/07/18 01:58:03;;;;;;;28.23;14.47;;;;;;;21.94;100.00;100247.29;1719175;83;21035;-76
2021/07/18 02:00:29;;;;;;;26.57;15.10;;;;;;;21.94;100.00;100240.44;1719243;83;21019;-76
2021/07/18 02:02:55;;;;;;;29.60;14.65;;;;;;;21.90;100.00;100249.14;1719178;83;21610;-76
2021/07/18 02:05:22;;;;;;;27.55;14.28;;;;;;;21.89;100.00;100259.89;1719387;83;21066;-76
2021/07/18 02:07:50;;;;;;;31.37;14.93;;;;;;;21.91;100.00;100258.95;1719312;83;21055;-81
2021/07/18 02:10:19;;;;;;;28.85;14.60;;;;;;;21.92;100.00;100248.23;1719237;83;21078;-76
2021/07/18 02:12:47;;;;;;;30.23;15.85;;;;;;;21.91;100.00;100254.84;1719174;83;21573;-76
2021/07/18 02:15:17;;;;;;;31.50;15.80;;;;;;;21.93;100.00;100266.28;1719172;83;21826;-80
2021/07/18 02:17:44;;;;;;;33.92;14.65;;;;;;;21.97;100.00;100257.03;1719053;83;21101;-74
2021/07/18 02:20:15;;;;;;;27.07;15.23;;;;;;;22.00;100.00;100250.85;1719328;83;21527;-73
2021/07/18 02:22:48;;;;;;;29.12;14.87;;;;;;;22.00;100.00;100254.97;1749063;78;21105;-76
2021/07/18 02:25:18;;;;;;;26.05;14.07;;;;;;;22.06;100.00;100260.20;1824525;78;21496;-73
2021/07/18 02:27:44;;;;;;;30.62;14.87;;;;;;;22.16;100.00;100263.27;1824171;78;21080;-78
2021/07/18 02:30:15;;;;;;;26.07;13.88;;;;;;;22.25;100.00;100259.64;1824419;78;21018;-73
2021/07/18 02:32:42;;;;;;;25.97;14.15;;;;;;;22.23;100.00;100259.97;1824273;78;20976;-75
2021/07/18 02:35:12;;;;;;;26.10;13.93;;;;;;;22.30;100.00;100264.89;1824209;78;21480;-76
2021/07/18 02:37:40;;;;;;;25.60;13.22;;;;;;;22.34;100.00;100267.16;1824316;78;21547;-77
2021/07/18 02:40:07;;;;;;;29.32;15.15;;;;;;;22.35;100.00;100268.75;1824339;78;21059;-76
2021/07/18 02:42:34;;;;;;;35.78;15.00;;;;;;;22.42;100.00;100265.65;1824058;78;21000;-76
2021/07/18 02:45:00;;;;;;;32.15;14.85;;;;;;;22.47;100.00;100265.96;1824406;78;21149;-75
2021/07/18 02:47:27;;;;;;;33.60;15.05;;;;;;;22.56;100.00;100271.31;1824344;78;21111;-78
2021/07/18 02:49:52;;;;;;;25.95;15.15;;;;;;;22.63;100.00;100269.58;1824402;78;21027;-76
2021/07/18 02:52:18;;;;;;;30.02;14.03;;;;;;;22.75;100.00;100274.81;1824555;78;21113;-75
2021/07/18 02:54:44;;;;;;;28.62;14.18;;;;;;;22.85;100.00;100276.49;1824293;78;20987;-76
2021/07/18 02:57:10;;;;;;;26.23;14.50;;;;;;;22.97;100.00;100272.09;1824363;78;21016;-74
2021/07/18 02:59:36;;;;;;;44.93;14.78;;;;;;;23.05;100.00;100269.77;1792530;78;20931;-76
2021/07/18 03:02:02;;;;;;;28.05;14.38;;;;;;;23.21;100.00;100281.59;1824350;78;20967;-76
2021/07/18 03:04:30;;;;;;;24.95;15.13;;;;;;;23.33;100.00;100269.14;1824333;78;21159;-76
2021/07/18 03:06:57;;;;;;;28.12;15.03;;;;;;;23.40;100.00;100274.59;1824193;78;21027;-76
2021/07/18 03:09:23;;;;;;;30.10;14.03;;;;;;;23.54;100.00;100263.38;1824284;78;21008;-76
2021/07/18 03:11:51;;;;;;;29.37;14.90;;;;;;;23.65;100.00;100262.82;1824066;78;21542;-73
2021/07/18 03:14:18;;;;;;;30.30;14.30;;;;;;;23.81;100.00;100265.02;1787672;80;21484;-76
2021/07/18 03:16:45;;;;;;;34.03;13.68;;;;;;;23.95;100.00;100266.73;1782718;80;21888;-75
2021/07/18 03:19:12;;;;;;;22.25;12.90;;;;;;;24.12;100.00;100260.03;1788207;80;20993;-74
2021/07/18 03:21:38;;;;;;;21.82;13.53;;;;;;;24.31;100.00;100261.21;1787616;80;21177;-74
2021/07/18 03:24:05;;;;;;;25.17;13.08;;;;;;;24.54;100.00;100257.20;1787914;80;20960;-76
2021/07/18 03:26:31;;;;;;;28.67;12.78;;;;;;;24.83;100.00;100255.22;1787979;80;21036;-75
2021/07/18 03:28:57;;;;;;;25.88;11.65;;;;;;;25.25;100.00;100254.43;1787954;80;21066;-76
2021/07/18 03:31:24;;;;;;;25.02;11.63;;;;;;;25.75;100.00;100249.72;1788135;80;20982;-76
2021/07/18 03:33:50;;;;;;;22.37;11.20;;;;;;;26.28;100.00;100247.53;1783424;80;21028;-78
2021/07/18 03:36:16;;;;;;;23.62;11.38;;;;;;;26.82;100.00;100257.28;1787989;80;21019;-75
2021/07/18 03:38:42;;;;;;;17.17;10.48;;;;;;;27.32;100.00;100267.48;1788013;80;20897;-79
2021/07/18 03:41:08;;;;;;;21.87;11.03;;;;;;;27.66;100.00;100252.16;1788106;80;21170;-79
2021/07/18 03:43:34;;;;;;;19.55;9.93;;;;;;;28.00;100.00;100252.81;1753096;80;21471;-76
2021/07/18 03:46:00;;;;;;;20.08;10.10;;;;;;;28.29;100.00;100245.41;1754271;81;20969;-76
2021/07/18 03:48:25;;;;;;;20.05;10.05;;;;;;;28.74;100.00;100246.63;1767895;81;20877;-79
2021/07/18 03:50:52;;;;;;;20.23;10.30;;;;;;;29.25;100.00;100244.15;1752868;81;21065;-79
2021/07/18 03:53:18;;;;;;;20.12;9.53;;;;;;;29.74;100.00;100246.74;1782840;80;21326;-80
2021/07/18 03:55:44;;;;;;;22.55;9.75;;;;;;;30.15;100.00;100248.22;1785326;80;21604;-78
2021/07/18 03:58:10;;;;;;;18.00;9.08;;;;;;;30.40;100.00;100246.78;1773485;79;20974;-79
2021/07/18 04:00:36;;;;;;;20.23;9.18;;;;;;;30.76;100.00;100243.21;1773201;79;20839;-76
2021/07/18 04:03:02;;;;;;;16.80;9.80;;;;;;;31.15;100.00;100241.61;1776044;79;21525;-77
2021/07/18 04:05:27;;;;;;;22.80;10.55;;;;;;;31.57;100.00;100250.05;1769989;79;21038;-76
2021/07/18 04:07:53;;;;;;;19.77;9.25;;;;;;;31.88;100.00;100248.13;1737031;81;20966;-80
2021/07/18 04:10:19;;;;;;;17.17;9.53;;;;;;;32.16;100.00;100251.25;1785341;79;21722;-77
2021/07/18 04:12:47;;;;;;;17.75;9.23;;;;;;;32.60;100.00;100252.33;1785175;80;20949;-80
2021/07/18 04:15:13;;;;;;;18.70;9.43;;;;;;;32.97;100.00;100250.59;1773632;79;21056;-77
2021/07/18 04:17:39;;;;;;;16.97;9.85;;;;;;;33.04;97.90;100257.52;1772187;78;21064;-79
2021/07/18 04:20:07;;;;;;;17.87;9.38;;;;;;;33.90;92.72;100245.67;1771716;79;20874;-80
2021/07/18 04:22:33;;;;;;;19.30;9.75;;;;;;;33.90;92.72;100245.67;1785072;80;21028;-80
2021/07/18 04:24:59;;;;;;;17.05;9.80;;;;;;;34.09;88.75;100248.94;1785202;80;21034;-79
2021/07/18 04:27:25;;;;;;;24.02;9.83;;;;;;;34.33;89.37;100248.28;1785191;80;20938;-80
2021/07/18 04:29:50;;;;;;;15.70;9.50;;;;;;;34.78;83.44;100243.52;1785083;80;21130;-77
2021/07/18 04:32:18;;;;;;;19.32;9.45;;;;;;;35.17;84.46;100250.23;1785069;80;20933;-78
2021/07/18 04:34:43;;;;;;;19.35;9.30;;;;;;;35.52;75.22;100255.56;1784910;80;21541;-79
2021/07/18 04:37:12;;;;;;;20.65;9.95;;;;;;;35.78;73.45;100250.12;1784753;80;20886;-77
2021/07/18 04:39:39;;;;;;;26.12;9.30;;;;;;;36.09;68.50;100251.28;1785198;80;21556;-79
2021/07/18 04:42:06;;;;;;;22.73;10.03;;;;;;;36.51;66.34;100253.28;1785476;79;21258;-79
2021/07/18 04:44:32;;;;;;;16.90;9.28;;;;;;;36.85;62.33;100259.67;1778366;80;20932;-80
2021/07/18 04:46:59;;;;;;;14.93;9.70;;;;;;;37.19;61.84;100254.80;1778631;80;21487;-78
2021/07/18 04:49:26;;;;;;;14.30;8.90;;;;;;;37.61;56.17;100250.39;1778419;80;21456;-78
2021/07/18 04:51:55;;;;;;;17.00;9.38;;;;;;;37.66;54.54;100248.41;1778654;79;20988;-80
2021/07/18 04:54:22;;;;;;;20.75;9.73;;;;;;;37.40;51.79;100250.48;1778668;80;21069;-81
2021/07/18 04:56:48;;;;;;;18.12;9.15;;;;;;;37.03;52.78;100250.11;1773193;80;20956;-79
2021/07/18 04:59:14;;;;;;;21.15;8.95;;;;;;;37.25;54.30;100255.02;1778397;80;21069;-77
2021/07/18 05:01:40;;;;;;;15.50;9.05;;;;;;;38.14;52.25;100251.16;1778508;79;21038;-78
2021/07/18 05:04:06;;;;;;;17.27;9.70;;;;;;;38.14;52.25;100251.16;1778478;79;20845;-79
2021/07/18 05:06:32;;;;;;;14.18;9.38;;;;;;;38.70;50.78;100248.83;1778624;80;21068;-80
2021/07/18 05:08:58;;;;;;;16.20;9.18;;;;;;;38.92;46.57;100252.25;1778610;79;20980;-77
2021/07/18 05:11:24;;;;;;;17.02;9.50;;;;;;;38.66;44.87;100253.83;1778694;80;20884;-78
2021/07/18 05:13:52;;;;;;;20.17;10.05;;;;;;;38.52;45.06;100262.83;1778624;79;20947;-78
2021/07/18 05:16:19;;;;;;;17.82;10.30;;;;;;;38.53;46.53;100257.34;1778142;79;21024;-78
2021/07/18 05:18:45;;;;;;;19.00;9.58;;;;;;;39.04;44.43;100256.35;1778904;79;21709;-76
2021/07/18 05:21:11;;;;;;;18.52;9.28;;;;;;;39.37;43.49;100260.69;1778642;80;21047;-78
2021/07/18 05:23:37;;;;;;;18.75;9.55;;;;;;;39.50;42.07;100262.73;1778723;79;20900;-79
2021/07/18 05:26:03;;;;;;;17.25;9.33;;;;;;;39.76;42.80;100257.61;1778596;79;21029;-76
2021/07/18 05:28:30;;;;;;;15.40;9.23;;;;;;;40.05;41.51;100252.89;1778670;79;20885;-76
2021/07/18 05:30:56;;;;;;;17.02;9.75;;;;;;;40.26;41.08;100261.03;1773454;80;21866;-77
2021/07/18 05:33:22;;;;;;;18.17;9.18;;;;;;;40.11;39.34;100255.86;1778611;79;20967;-77
2021/07/18 05:35:48;;;;;;;19.95;9.45;;;;;;;39.74;40.58;100254.46;1773770;80;21625;-77
2021/07/18 05:38:14;;;;;;;17.05;8.80;;;;;;;39.96;41.25;100256.50;1778666;80;20927;-77
2021/07/18 05:40:40;;;;;;;16.20;9.65;;;;;;;40.47;40.64;100256.42;1778711;79;20960;-79
2021/07/18 05:43:06;;;;;;;18.30;9.40;;;;;;;41.10;40.02;100257.33;1754988;79;21922;-77
2021/07/18 05:45:32;;;;;;;14.63;9.85;;;;;;;41.83;39.12;100262.48;1798658;79;20875;-77
2021/07/18 05:47:58;;;;;;;19.65;9.60;;;;;;;42.15;37.06;100258.58;1771739;79;20994;-79
2021/07/18 05:50:24;;;;;;;20.65;9.75;;;;;;;42.28;37.50;100258.30;1796636;79;21477;-79
2021/07/18 05:52:50;;;;;;;23.57;9.08;;;;;;;42.55;37.50;100255.81;1798422;79;21084;-77
2021/07/18 05:55:16;;;;;;;18.42;9.85;;;;;;;43.04;36.75;100250.02;1772012;79;21679;-78
2021/07/18 05:57:42;;;;;;;19.12;10.08;;;;;;;43.15;35.39;100247.34;1796419;79;21005;-78
2021/07/18 06:00:12;;;;;;;25.43;10.78;;;;;;;43.22;34.91;100254.67;1796369;78;21014;-78
2021/07/18 06:02:40;;;;;;;23.20;12.58;;;;;;;43.49;33.91;100247.78;1796897;79;21001;-79
2021/07/18 06:05:08;;;;;;;16.93;11.10;;;;;;;43.69;34.22;100249.86;1796266;79;21085;-77
2021/07/18 06:07:34;;;;;;;23.62;11.73;;;;;;;44.24;34.78;100246.67;1790262;78;21958;-78
2021/07/18 06:10:00;;;;;;;22.95;12.28;;;;;;;44.83;32.62;100244.09;1785022;78;20886;-76
2021/07/18 06:12:27;;;;;;;20.17;11.38;;;;;;;44.79;31.33;100244.19;1774148;79;20978;-79
2021/07/18 06:14:53;;;;;;;29.27;11.03;;;;;;;43.91;31.51;100248.66;1793678;78;21066;-76
2021/07/18 06:17:19;;;;;;;18.02;10.50;;;;;;;44.02;33.06;100243.00;1790410;78;21510;-77
2021/07/18 06:19:47;;;;;;;15.10;10.08;;;;;;;44.89;33.10;100248.40;1798590;79;21120;-79
2021/07/18 06:22:13;;;;;;;21.40;10.95;;;;;;;45.76;31.61;100244.91;1731478;81;21054;-79
2021/07/18 06:24:38;;;;;;;20.25;10.13;;;;;;;45.92;29.88;100245.48;1716410;82;20944;-77
2021/07/18 06:27:07;;;;;;;19.48;11.33;;;;;;;46.11;30.14;100245.78;1694221;82;20896;-77
2021/07/18 06:29:34;;;;;;;16.97;10.98;;;;;;;46.39;29.66;100250.87;1723382;83;21069;-77
2021/07/18 06:32:00;;;;;;;18.37;11.03;;;;;;;46.72;29.16;100249.97;1704689;84;21961;-77
2021/07/18 06:34:26;;;;;;;13.88;10.43;;;;;;;47.10;29.36;100251.96;1717254;83;21049;-78
2021/07/18 06:36:53;;;;;;;20.32;11.05;;;;;;;47.26;28.74;100246.05;1676710;85;21191;-76
2021/07/18 06:39:20;;;;;;;17.85;11.03;;;;;;;47.61;27.95;100239.56;1676516;85;21087;-77
2021/07/18 06:41:49;;;;;;;14.63;10.53;;;;;;;47.71;27.69;100237.93;1676875;85;21056;-77
2021/07/18 06:44:15;;;;;;;16.80;10.93;;;;;;;47.96;27.63;100237.41;1673493;85;21096;-77
2021/07/18 06:46:41;;;;;;;14.33;11.03;;;;;;;48.19;26.48;100236.62;1647928;84;21633;-77
2021/07/18 06:49:07;;;;;;;18.55;11.35;;;;;;;48.31;27.32;100233.01;1718884;81;20861;-77
2021/07/18 06:51:34;;;;;;;16.50;11.60;;;;;;;48.28;26.05;100231.98;1729694;81;21082;-77
2021/07/18 06:54:00;;;;;;;13.72;11.10;;;;;;;48.34;25.42;100239.09;1758210;81;20979;-81
2021/07/18 06:56:26;;;;;;;14.20;11.03;;;;;;;48.71;25.75;100233.41;1758165;81;21056;-77
2021/07/18 06:58:52;;;;;;;17.90;11.00;;;;;;;48.82;26.18;100226.14;1748423;81;20948;-77
2021/07/18 07:01:17;;;;;;;18.85;11.63;;;;;;;49.03;25.66;100220.06;1728089;83;20954;-78
2021/07/18 07:03:43;;;;;;;15.68;11.25;;;;;;;49.03;25.29;100219.29;1727894;83;20919;-77
2021/07/18 07:06:09;;;;;;;18.45;12.28;;;;;;;49.34;25.74;100220.09;1726378;81;20889;-79
2021/07/18 07:08:35;;;;;;;17.10;12.33;;;;;;;49.75;24.74;100217.58;1712797;81;21087;-81
2021/07/18 07:11:01;;;;;;;16.82;11.55;;;;;;;49.68;23.68;100222.48;1712471;83;20896;-78
2021/07/18 07:13:29;;;;;;;16.62;10.25;;;;;;;49.34;24.15;100220.09;1723952;81;20959;-81
2021/07/18 07:15:58;;;;;;;16.77;11.55;;;;;;;49.38;24.15;100219.77;1727534;83;21082;-78
2021/07/18 07:18:24;;;;;;;15.18;10.88;;;;;;;49.82;23.97;100224.76;1714994;81;21037;-78
2021/07/18 07:20:50;;;;;;;17.10;11.18;;;;;;;49.83;23.48;100220.56;1747825;81;21490;-75
2021/07/18 07:23:18;;;;;;;13.03;11.05;;;;;;;49.99;23.17;100221.66;1761437;81;21017;-77
2021/07/18 07:25:45;;;;;;;14.87;11.22;;;;;;;49.67;22.46;100215.88;1730494;82;21126;-77
2021/07/18 07:28:11;;;;;;;13.53;10.53;;;;;;;49.39;23.19;100223.41;1761274;81;21029;-76
2021/07/18 07:30:37;;;;;;;12.18;10.90;;;;;;;49.92;23.77;100220.21;1730990;82;20978;-78
2021/07/18 07:33:04;;;;;;;21.80;11.53;;;;;;;50.51;22.47;100230.30;1759526;80;21361;-80
2021/07/18 07:35:30;;;;;;;17.57;11.40;;;;;;;50.35;22.65;100226.41;1731362;80;20991;-76
2021/07/18 07:37:56;;;;;;;14.45;10.48;;;;;;;50.38;23.01;100223.10;1743127;81;21546;-78
2021/07/18 07:40:22;;;;;;;12.93;9.88;;;;;;;49.47;22.82;100224.34;1726190;82;20876;-77
2021/07/18 07:42:48;;;;;;;16.05;9.80;;;;;;;49.47;22.84;100223.67;1743226;81;20859;-78
2021/07/18 07:45:15;;;;;;;11.18;9.70;;;;;;;49.69;21.84;100231.88;1786357;80;21929;-78
2021/07/18 07:47:42;;;;;;;13.80;9.90;;;;;;;49.88;22.65;100231.17;1782668;80;21031;-84
2021/07/18 07:50:11;;;;;;;11.53;9.53;;;;;;;50.45;21.41;100231.05;1760736;80;21000;-79
2021/07/18 07:52:38;;;;;;;14.20;9.30;;;;;;;50.15;20.83;100230.63;1787377;79;20989;-79
2021/07/18 07:55:05;;;;;;;14.35;10.25;;;;;;;49.14;21.68;100228.41;1787204;80;21054;-79
2021/07/18 07:57:33;;;;;;;21.55;9.20;;;;;;;48.84;23.41;100234.97;1787234;80;21861;-81
2021/07/18 07:59:59;;;;;;;14.78;8.40;;;;;;;48.67;21.17;100237.34;1787447;80;21004;-81
2021/07/18 08:02:28;;;;;;;13.62;9.05;;;;;;;47.62;21.36;100239.02;1787299;80;21033;-80
2021/07/18 08:04:54;;;;;;;11.25;8.25;;;;;;;46.41;22.17;100238.28;1787318;80;20987;-79
2021/07/18 08:07:20;;;;;;;11.95;8.18;;;;;;;45.74;24.84;100241.02;1787158;80;21594;-80
2021/07/18 08:09:46;;;;;;;9.73;8.43;;;;;;;46.70;23.43;100234.78;1787195;80;21015;-78
2021/07/18 08:12:11;;;;;;;11.57;7.78;;;;;;;47.48;22.98;100229.52;1787249;80;20880;-78
2021/07/18 08:14:37;;;;;;;11.25;7.10;;;;;;;47.76;23.11;100223.64;1787215;79;20971;-81
2021/07/18 08:17:04;;;;;;;11.75;8.15;;;;;;;48.41;22.74;100232.11;1787158;80;20975;-82
2021/07/18 08:19:31;;;;;;;12.05;8.20;;;;;;;48.18;22.18;100235.81;1786991;80;20987;-78
2021/07/18 08:21:57;;;;;;;16.12;8.23;;;;;;;47.45;22.71;100232.63;1786791;80;21160;-79
2021/07/18 08:24:23;;;;;;;21.02;8.65;;;;;;;47.73;22.67;100228.95;1787216;80;20956;-82
2021/07/18 08:26:49;;;;;;;11.12;7.65;;;;;;;47.47;21.46;100240.02;1731098;80;21052;-84
2021/07/18 08:29:15;;;;;;;15.80;7.12;;;;;;;45.87;22.50;100239.89;1778173;80;20848;-78
2021/07/18 08:31:41;;;;;;;12.98;7.58;;;;;;;45.62;23.89;100239.44;1761258;80;20884;-79
2021/07/18 08:34:06;;;;;;;19.00;8.70;;;;;;;46.10;23.87;100234.27;1772948;80;21615;-80
2021/07/18 08:36:32;;;;;;;15.75;7.70;;;;;;;45.02;23.58;100235.14;1755687;81;20947;-79
2021/07/18 08:38:58;;;;;;;11.35;7.80;;;;;;;44.24;24.67;100233.89;1756320;81;20887;-78
2021/07/18 08:41:25;;;;;;;11.70;6.33;;;;;;;44.27;26.29;100235.09;1756007;81;20891;-78
2021/07/18 08:43:51;;;;;;;8.70;6.85;;;;;;;45.55;25.25;100236.45;1754932;81;21649;-76
2021/07/18 08:46:20;;;;;;;10.85;6.87;;;;;;;46.03;23.51;100240.45;1753009;81;21161;-78
2021/07/18 08:48:47;;;;;;;9.30;7.20;;;;;;;46.07;24.56;100235.30;1752534;81;20975;-76
2021/07/18 08:51:15;;;;;;;9.95;7.30;;;;;;;46.64;23.93;100229.06;1753100;81;21046;-79
2021/07/18 08:53:42;;;;;;;11.93;6.55;;;;;;;46.88;24.19;100230.59;1753045;81;21047;-75
2021/07/18 08:56:09;;;;;;;10.23;6.53;;;;;;;47.46;23.73;100227.05;1727615;79;21039;-81
2021/07/18 08:58:35;;;;;;;10.10;6.90;;;;;;;47.68;22.39;100223.27;1772150;79;21053;-80
2021/07/18 09:01:01;;;;;;;14.50;6.60;;;;;;;47.27;22.18;100229.06;1780630;79;21455;-78
2021/07/18 09:03:27;;;;;;;13.85;6.80;;;;;;;46.93;22.78;100226.18;1784013;80;20860;-76
2021/07/18 09:06:09;;;;;;;12.18;6.12;;;;;;;46.40;23.53;100223.91;1778031;80;21049;-78
2021/07/18 09:08:48;;;;;;;12.95;6.67;;;;;;;46.48;22.46;100223.37;1776676;79;21112;-77
2021/07/18 09:11:25;;;;;;;11.78;6.22;;;;;;;46.23;23.39;100225.96;1682991;83;21226;-79
2021/07/18 09:14:00;;;;;;;8.00;6.17;;;;;;;46.31;22.74;100224.84;1679069;84;21496;-76
2021/07/18 09:16:37;;;;;;;12.00;6.42;;;;;;;46.22;23.78;100225.84;1674269;85;21092;-82
2021/07/18 09:19:30;;;;;;;11.78;5.90;;;;;;;46.71;23.30;100215.59;1677736;84;21110;-79
2021/07/18 09:22:14;;;;;;;14.38;5.78;;;;;;;46.55;21.92;100214.31;1682345;84;21043;-80
2021/07/18 09:24:49;;;;;;;8.05;5.30;;;;;;;44.07;23.26;100209.61;1671066;84;21092;-79
2021/07/18 09:27:24;;;;;;;13.83;5.83;;;;;;;44.09;24.45;100215.55;1690366;82;21005;-79
2021/07/18 09:30:06;;;;;;;9.28;5.50;;;;;;;43.73;24.79;100221.38;1675656;83;21598;-81
2021/07/18 09:32:36;;;;;;;15.03;5.47;;;;;;;42.32;25.12;100225.69;1707242;83;21088;-76
2021/07/18 09:35:14;;;;;;;11.43;6.17;;;;;;;42.26;26.22;100224.78;1701228;83;21544;-81
2021/07/18 09:37:47;;;;;;;12.88;5.53;;;;;;;42.77;26.60;100215.71;1707356;83;21589;-75
2021/07/18 09:40:20;;;;;;;13.85;5.28;;;;;;;43.48;26.17;100213.59;1709587;84;21081;-78
2021/07/18 09:42:59;;;;;;;9.83;5.85;;;;;;;43.65;25.36;100203.86;1709442;83;21093;-78
2021/07/18 09:48:10;;;;;;;15.95;5.87;;;;;;;42.43;25.54;100221.62;1692594;84;25967;-79
2021/07/18 09:50:40;;;;;;;10.45;5.55;;;;;;;42.05;26.61;100216.06;1684607;84;21144;-78
2021/07/18 09:53:16;;;;;;;10.40;5.72;;;;;;;42.13;26.79;100218.65;1686936;84;21073;-78
2021/07/18 09:56:03;;;;;;;11.85;5.67;;;;;;;42.40;26.79;100210.50;1688595;85;21098;-78
2021/07/18 09:58:31;;;;;;;12.53;5.75;;;;;;;42.99;26.98;100203.92;1688532;85;21025;-82
2021/07/18 10:01:00;;;;;;;13.00;5.70;;;;;;;42.74;26.19;100209.61;1688537;85;21218;-79
2021/07/18 10:03:27;;;;;;;9.33;4.90;;;;;;;41.62;27.31;100223.33;1666012;86;21152;-79
2021/07/18 10:06:16;;;;;;;12.13;5.42;;;;;;;41.18;27.50;100222.56;1676264;85;21151;-76
2021/07/18 10:08:51;;;;;;;12.45;5.10;;;;;;;40.96;27.00;100217.16;1674765;85;21125;-76
2021/07/18 10:11:22;;;;;;;13.05;5.65;;;;;;;40.61;27.97;100221.06;1677037;85;21069;-79
2021/07/18 10:13:51;;;;;;;10.70;5.03;;;;;;;40.45;28.60;100218.61;1663295;86;21080;-76
2021/07/18 10:16:19;;;;;;;8.08;4.65;;;;;;;40.17;28.69;100216.63;1667280;86;21178;-76
2021/07/18 10:18:48;;;;;;;10.70;4.70;;;;;;;40.18;27.74;100211.18;1663329;86;21029;-78
2021/07/18 10:21:20;;;;;;;10.85;4.72;;;;;;;39.87;28.27;100204.30;1667394;86;21014;-78
2021/07/18 10:23:50;;;;;;;12.20;5.40;;;;;;;39.41;28.63;100205.69;1640709;86;21086;-78
2021/07/18 10:26:19;;;;;;;11.25;5.25;;;;;;;39.54;29.64;100202.73;1667313;86;21109;-78
2021/07/18 10:28:46;;;;;;;9.65;4.80;;;;;;;39.87;30.01;100202.89;1663216;86;21144;-82
2021/07/18 10:31:24;;;;;;;12.23;5.25;;;;;;;40.40;28.58;100201.05;1667186;86;21041;-78
2021/07/18 10:33:51;;;;;;;11.75;5.00;;;;;;;40.59;28.63;100207.43;1628263;88;21121;-83
2021/07/18 10:36:21;;;;;;;13.60;5.10;;;;;;;40.28;28.38;100200.63;1658176;86;21030;-78
2021/07/18 10:38:47;;;;;;;11.10;5.37;;;;;;;40.02;29.07;100202.23;1658443;86;21158;-78
2021/07/18 10:41:15;;;;;;;11.08;5.08;;;;;;;39.77;29.01;100202.75;1658396;86;21568;-80
2021/07/18 10:43:47;;;;;;;15.53;4.97;;;;;;;39.45;30.13;100206.96;1658363;86;21042;-76
2021/07/18 10:46:48;;;;;;;11.85;4.75;;;;;;;39.45;29.46;100200.69;1658988;86;21722;-77
2021/07/18 10:49:16;;;;;;;9.85;5.00;;;;;;;39.56;29.66;100197.38;1659393;86;21044;-77
2021/07/18 10:51:51;;;;;;;14.60;5.03;;;;;;;40.00;29.59;100190.63;1659000;86;21061;-81
2021/07/18 10:54:20;;;;;;;8.70;4.67;;;;;;;40.00;28.83;100189.99;1657229;86;21755;-78
2021/07/18 10:56:52;;;;;;;10.08;4.50;;;;;;;39.69;29.33;100190.96;1637015;86;21138;-79
2021/07/18 10:59:36;;;;;;;;;;;;;;;39.59;30.20;100183.74;1661922;86;21041;-78
2021/07/18 11:02:11;;;;;;;8.98;4.72;;;;;;;39.50;28.93;100182.34;1623249;88;20231;-76
2021/07/18 11:04:47;;;;;;;11.30;4.72;;;;;;;39.87;30.46;100178.12;1609122;88;21529;-79
2021/07/18 11:07:26;;;;;;;13.32;4.67;;;;;;;40.18;28.42;100170.23;1623944;88;21234;-77
2021/07/18 11:10:11;;;;;;;11.60;4.97;;;;;;;40.02;28.47;100173.38;1627642;87;21098;-79
2021/07/18 11:12:48;;;;;;;19.92;4.83;;;;;;;39.70;29.44;100175.59;1675529;85;21075;-78
2021/07/18 11:15:21;;;;;;;8.18;4.37;;;;;;;39.25;29.19;100174.95;1580390;90;21095;-79
2021/07/18 11:18:06;;;;;;;10.50;4.28;;;;;;;38.90;29.42;100173.80;1653748;86;21123;-78